Time;durP1;ratioP1;P1;durP2;ratioP2;P2;SDS_P1;SDS_P2;PMS_P1;PMS_P2;Temp;Humidity;BMP_temperature;BMP_pressure;BME280_temperature;BME280_humidity;BME280_pressure;Samples;Min_cycle;Max_cycle;Signal;HPM_P1;HPM_P2
2024/04/05 00:00:08;;;;;;;17.55;3.17;;;11.30;99.90;;;;;;4997489;28;20057;-79
2024/04/05 00:02:38;;;;;;;20.75;4.18;;;11.30;99.90;;;;;;5001949;28;20492;-79
2024/04/05 00:05:04;;;;;;;21.60;4.22;;;11.30;99.90;;;;;;4997969;28;20045;-79
2024/04/05 00:07:30;;;;;;;14.32;3.13;;;11.30;99.90;;;;;;4982002;28;20041;-79
2024/04/05 00:09:56;;;;;;;8.32;2.25;;;11.30;99.90;;;;;;4998440;28;20053;-79
2024/04/05 00:12:22;;;;;;;13.52;3.88;;;11.40;99.90;;;;;;4998156;28;20072;-79
2024/04/05 00:14:50;;;;;;;18.98;3.33;;;11.40;99.90;;;;;;5014461;28;20479;-79
2024/04/05 00:17:16;;;;;;;16.65;2.90;;;11.40;99.90;;;;;;5014072;28;20038;-79
2024/04/05 00:19:42;;;;;;;12.20;2.55;;;11.40;99.90;;;;;;4998013;28;20049;-79
2024/04/05 00:22:08;;;;;;;15.70;3.08;;;11.40;99.90;;;;;;4997969;28;20042;-79
2024/04/05 00:24:34;;;;;;;12.07;3.45;;;11.40;99.90;;;;;;5014255;28;20038;-79
2024/04/05 00:27:00;;;;;;;11.43;3.85;;;11.40;99.90;;;;;;4997797;28;20050;-78
2024/04/05 00:29:26;;;;;;;9.50;2.97;;;11.50;99.90;;;;;;4997938;28;20044;-79
2024/04/05 00:31:52;;;;;;;12.23;3.50;;;11.40;99.90;;;;;;5014266;28;20064;-79
2024/04/05 00:34:18;;;;;;;16.92;4.53;;;11.60;99.90;;;;;;5013906;28;20037;-79
2024/04/05 00:36:44;;;;;;;9.43;3.03;;;11.50;99.90;;;;;;4981598;28;20033;-78
2024/04/05 00:39:10;;;;;;;15.32;3.15;;;11.20;99.90;;;;;;4997702;28;20491;-79
2024/04/05 00:41:36;;;;;;;12.00;3.42;;;11.20;99.90;;;;;;4997693;28;20073;-79
2024/04/05 00:44:02;;;;;;;14.25;2.90;;;11.20;99.90;;;;;;4997630;28;20045;-78
2024/04/05 00:46:28;;;;;;;14.80;4.22;;;11.20;99.90;;;;;;5013915;28;20103;-79
2024/04/05 00:48:54;;;;;;;19.42;3.78;;;11.20;99.90;;;;;;4997633;28;20045;-78
2024/04/05 00:51:20;;;;;;;10.48;3.33;;;11.20;99.90;;;;;;4981248;28;20088;-79
2024/04/05 00:53:47;;;;;;;10.88;4.20;;;11.10;99.90;;;;;;4981283;28;20052;-79
2024/04/05 00:56:14;;;;;;;9.18;1.98;;;11.20;99.90;;;;;;4981118;28;20057;-79
2024/04/05 00:58:40;;;;;;;11.95;2.38;;;11.10;99.90;;;;;;4981146;28;20049;-79
2024/04/05 01:01:06;;;;;;;12.90;2.35;;;11.00;99.90;;;;;;4997168;28;20038;-78
2024/04/05 01:03:32;;;;;;;13.40;2.80;;;11.00;99.90;;;;;;4997276;28;20034;-79
2024/04/05 01:05:59;;;;;;;9.48;2.42;;;10.90;99.90;;;;;;4964998;28;20384;-79
2024/04/05 01:08:25;;;;;;;13.27;3.17;;;10.90;99.90;;;;;;4996425;28;20034;-79
2024/04/05 01:10:51;;;;;;;14.35;4.60;;;10.90;99.90;;;;;;4980430;28;20050;-79
2024/04/05 01:13:17;;;;;;;13.70;3.20;;;10.90;99.90;;;;;;4980669;28;20399;-79
2024/04/05 01:15:43;;;;;;;22.98;4.32;;;10.90;99.90;;;;;;4997137;28;20053;-79
2024/04/05 01:18:10;;;;;;;8.93;3.30;;;10.90;99.90;;;;;;4980710;28;20050;-79
2024/04/05 01:20:38;;;;;;;10.73;2.67;;;10.80;99.90;;;;;;4980785;28;20050;-79
2024/04/05 01:23:06;;;;;;;15.38;3.47;;;10.90;99.90;;;;;;4996852;28;20395;-78
2024/04/05 01:25:32;;;;;;;12.23;2.80;;;10.80;99.90;;;;;;4980534;28;20050;-79
2024/04/05 01:28:00;;;;;;;16.08;3.15;;;10.80;99.90;;;;;;4980650;28;20054;-79
2024/04/05 01:30:26;;;;;;;10.68;2.70;;;10.90;99.90;;;;;;4996604;28;20046;-79
2024/04/05 01:32:53;;;;;;;15.48;4.18;;;10.80;99.90;;;;;;4996799;28;20403;-79
2024/04/05 01:35:19;;;;;;;7.95;2.00;;;10.80;99.90;;;;;;4980231;28;20053;-79
2024/04/05 01:37:45;;;;;;;22.00;3.42;;;10.80;99.90;;;;;;4980644;28;20041;-79
2024/04/05 01:40:11;;;;;;;15.68;3.45;;;10.70;99.90;;;;;;4980009;28;20064;-79
2024/04/05 01:42:38;;;;;;;11.23;2.83;;;10.60;99.90;;;;;;4980279;28;20499;-79
2024/04/05 01:45:04;;;;;;;13.43;2.95;;;10.70;99.90;;;;;;4980276;28;20046;-79
2024/04/05 01:47:31;;;;;;;11.02;2.40;;;10.60;99.90;;;;;;4980166;28;20038;-79
2024/04/05 01:49:57;;;;;;;19.35;3.45;;;10.60;99.90;;;;;;4996397;28;20589;-79
2024/04/05 01:52:23;;;;;;;6.15;2.67;;;10.50;99.90;;;;;;4996051;28;20050;-79
2024/04/05 01:54:49;;;;;;;9.77;3.28;;;10.50;99.90;;;;;;4980222;28;20046;-78
2024/04/05 01:57:15;;;;;;;8.93;2.15;;;10.60;99.90;;;;;;4995901;28;20069;-79
2024/04/05 01:59:53;;;;;;;11.00;2.58;;;10.60;99.90;;;;;;4980136;28;20044;-79
2024/04/05 02:02:19;;;;;;;17.38;4.57;;;10.70;99.90;;;;;;4996108;28;20466;-79
2024/04/05 02:04:46;;;;;;;13.77;3.13;;;10.80;99.90;;;;;;4979947;28;20046;-79
2024/04/05 02:07:12;;;;;;;8.82;2.50;;;10.80;99.90;;;;;;4980140;28;20045;-79
2024/04/05 02:09:38;;;;;;;9.93;1.88;;;10.90;99.90;;;;;;4979851;28;20042;-78
2024/04/05 02:12:05;;;;;;;9.63;2.60;;;11.00;99.90;;;;;;4979797;28;20049;-79
2024/04/05 02:14:33;;;;;;;11.38;2.40;;;11.00;99.90;;;;;;4979823;28;20045;-79
2024/04/05 02:16:59;;;;;;;8.18;4.07;;;11.10;99.90;;;;;;4995795;28;20050;-80
2024/04/05 02:19:25;;;;;;;18.17;4.03;;;11.10;99.90;;;;;;5011973;28;20399;-78
2024/04/05 02:21:51;;;;;;;14.68;3.22;;;11.10;99.90;;;;;;4995611;28;20044;-79
2024/04/05 02:24:17;;;;;;;5.70;2.28;;;11.10;99.90;;;;;;4995744;28;20042;-79
2024/04/05 02:26:43;;;;;;;13.65;4.55;;;11.10;99.90;;;;;;4979496;28;20097;-79
2024/04/05 02:29:09;;;;;;;10.77;2.55;;;11.00;99.90;;;;;;4995824;28;20450;-78
2024/04/05 02:31:35;;;;;;;10.38;3.50;;;11.00;99.90;;;;;;4979275;28;20108;-79
2024/04/05 02:34:03;;;;;;;15.73;3.72;;;10.90;99.90;;;;;;4979507;28;20475;-79
2024/04/05 02:36:30;;;;;;;6.57;2.05;;;10.80;99.90;;;;;;4995363;28;20041;-79
2024/04/05 02:38:56;;;;;;;12.77;2.53;;;10.80;99.90;;;;;;4995609;28;20038;-78
2024/04/05 02:41:22;;;;;;;10.05;2.95;;;10.90;99.90;;;;;;5011425;28;20560;-78
2024/04/05 02:43:48;;;;;;;10.32;2.88;;;10.80;99.90;;;;;;4995461;28;20038;-79
2024/04/05 02:46:14;;;;;;;14.27;2.95;;;10.70;99.90;;;;;;4979377;28;20518;-79
2024/04/05 02:48:40;;;;;;;10.63;3.90;;;10.70;99.90;;;;;;5011502;28;20129;-78
2024/04/05 02:51:06;;;;;;;12.57;2.70;;;10.70;99.90;;;;;;4979169;28;20517;-78
2024/04/05 02:53:32;;;;;;;5.90;1.77;;;10.70;99.90;;;;;;4995050;28;20050;-79
2024/04/05 02:55:58;;;;;;;10.25;3.22;;;10.70;99.90;;;;;;4995367;28;20104;-79
2024/04/05 02:58:24;;;;;;;10.02;2.97;;;10.90;99.90;;;;;;5011551;28;20045;-78
2024/04/05 03:00:55;;;;;;;10.13;3.67;;;10.80;99.90;;;;;;4957922;28;20042;-79
2024/04/05 03:03:21;;;;;;;18.25;3.40;;;10.80;99.90;;;;;;5009426;28;20507;-79
2024/04/05 03:05:48;;;;;;;9.57;2.30;;;10.90;99.90;;;;;;5010423;28;20041;-79
2024/04/05 03:08:17;;;;;;;14.02;3.50;;;10.90;99.90;;;;;;5011399;28;20494;-79
2024/04/05 03:10:43;;;;;;;17.25;4.75;;;10.90;99.90;;;;;;4979279;28;20049;-79
2024/04/05 03:13:09;;;;;;;15.02;4.57;;;10.90;99.90;;;;;;4995317;28;20069;-78
2024/04/05 03:15:36;;;;;;;14.48;2.85;;;10.90;99.90;;;;;;4994891;28;20056;-79
2024/04/05 03:18:05;;;;;;;10.98;3.13;;;11.00;99.90;;;;;;5011470;28;20053;-79
2024/04/05 03:20:31;;;;;;;10.30;3.25;;;11.00;99.90;;;;;;4978710;28;20042;-79
2024/04/05 03:22:57;;;;;;;14.10;3.40;;;11.00;99.90;;;;;;4962819;28;20495;-79
2024/04/05 03:25:23;;;;;;;12.20;3.58;;;11.00;99.90;;;;;;4995053;28;20057;-79
2024/04/05 03:27:49;;;;;;;13.32;2.97;;;10.90;99.90;;;;;;4978547;28;20519;-78
2024/04/05 03:30:16;;;;;;;13.05;3.13;;;10.90;99.90;;;;;;4978761;28;20049;-78
2024/04/05 03:32:42;;;;;;;14.98;3.05;;;10.90;99.90;;;;;;5012690;28;20034;-78
2024/04/05 03:35:08;;;;;;;14.55;3.88;;;10.90;99.90;;;;;;5015243;28;20484;-78
2024/04/05 03:37:38;;;;;;;13.15;2.70;;;10.90;99.90;;;;;;4998678;28;20088;-78
2024/04/05 03:40:05;;;;;;;9.05;2.72;;;10.90;99.90;;;;;;4999254;28;20034;-79
2024/04/05 03:42:31;;;;;;;16.40;4.20;;;10.90;99.90;;;;;;4966275;28;20072;-78
2024/04/05 03:44:57;;;;;;;13.45;5.70;;;11.00;99.90;;;;;;4998829;28;20037;-79
2024/04/05 03:47:23;;;;;;;22.98;4.40;;;11.10;99.90;;;;;;4982475;28;20054;-79
2024/04/05 03:49:50;;;;;;;12.90;3.22;;;11.10;99.90;;;;;;4982245;28;20058;-78
2024/04/05 03:52:16;;;;;;;10.75;4.75;;;11.20;99.90;;;;;;5015027;28;20046;-79
2024/04/05 03:54:42;;;;;;;17.90;2.83;;;11.50;99.90;;;;;;4982201;28;20105;-78
2024/04/05 03:57:09;;;;;;;19.13;5.40;;;11.30;99.90;;;;;;5014766;28;20578;-79
2024/04/05 03:59:35;;;;;;;21.08;5.25;;;11.40;99.90;;;;;;4966081;28;20038;-79
2024/04/05 04:02:01;;;;;;;10.18;3.08;;;11.40;99.90;;;;;;4998603;28;20376;-78
2024/04/05 04:04:28;;;;;;;17.55;4.63;;;11.40;99.90;;;;;;4982284;28;20050;-79
2024/04/05 04:06:54;;;;;;;13.35;3.78;;;11.40;99.90;;;;;;4981904;28;20045;-79
2024/04/05 04:09:20;;;;;;;9.27;3.03;;;11.50;99.90;;;;;;4998348;28;20045;-79
2024/04/05 04:11:46;;;;;;;12.60;2.22;;;11.50;99.90;;;;;;4998114;28;20490;-78
2024/04/05 04:14:15;;;;;;;14.38;4.43;;;11.50;99.90;;;;;;5014755;28;20056;-78
2024/04/05 04:16:41;;;;;;;10.55;3.13;;;11.40;99.90;;;;;;4981948;28;20045;-78
2024/04/05 04:19:08;;;;;;;12.07;2.65;;;11.40;99.90;;;;;;4965825;28;20057;-79
2024/04/05 04:21:35;;;;;;;13.25;3.38;;;11.30;99.90;;;;;;5014259;28;20400;-79
2024/04/05 04:24:01;;;;;;;11.13;3.38;;;11.30;99.90;;;;;;4981766;28;20046;-78
2024/04/05 04:26:27;;;;;;;12.02;2.90;;;11.20;99.90;;;;;;4998071;28;20066;-78
2024/04/05 04:28:53;;;;;;;11.98;3.53;;;11.30;99.90;;;;;;5014206;28;20050;-78
2024/04/05 04:31:24;;;;;;;14.13;4.10;;;11.30;99.90;;;;;;4997878;28;20053;-78
2024/04/05 04:33:51;;;;;;;10.68;2.22;;;11.30;99.90;;;;;;5014245;28;20046;-79
2024/04/05 04:36:22;;;;;;;8.50;3.08;;;11.30;99.90;;;;;;4981668;28;20093;-79
2024/04/05 04:38:49;;;;;;;14.80;3.20;;;11.20;99.90;;;;;;5014057;28;20503;-79
2024/04/05 04:41:16;;;;;;;13.98;4.53;;;11.20;99.90;;;;;;4981589;28;20050;-79
2024/04/05 04:43:43;;;;;;;9.13;2.67;;;11.20;99.90;;;;;;4997458;28;20069;-79
2024/04/05 04:46:19;;;;;;;17.20;3.58;;;11.20;99.90;;;;;;4997538;28;20523;-79
2024/04/05 04:48:45;;;;;;;8.18;1.95;;;11.10;99.90;;;;;;4981198;28;20053;-78
2024/04/05 04:51:11;;;;;;;8.57;3.10;;;11.20;99.90;;;;;;4997768;28;20391;-79
2024/04/05 04:53:37;;;;;;;9.98;3.17;;;11.20;99.90;;;;;;4997352;28;20049;-79
2024/04/05 04:56:03;;;;;;;7.72;2.55;;;11.20;99.90;;;;;;4997584;28;20478;-79
2024/04/05 04:58:29;;;;;;;11.77;4.07;;;11.20;99.90;;;;;;4997512;28;20042;-79
2024/04/05 05:00:56;;;;;;;10.80;3.65;;;11.10;99.90;;;;;;5009513;28;20092;-79
2024/04/05 05:03:23;;;;;;;8.50;3.50;;;11.10;99.90;;;;;;4982195;28;20042;-79
2024/04/05 05:05:49;;;;;;;8.30;2.60;;;11.10;99.90;;;;;;5006045;28;20042;-79
2024/04/05 05:08:15;;;;;;;10.20;3.50;;;11.10;99.90;;;;;;5013335;28;20096;-79
2024/04/05 05:10:42;;;;;;;14.38;3.20;;;11.10;99.90;;;;;;4980840;28;20042;-78
2024/04/05 05:13:12;;;;;;;7.93;2.47;;;11.10;99.90;;;;;;5013442;28;20042;-78
2024/04/05 05:15:42;;;;;;;10.50;2.60;;;11.10;99.90;;;;;;5013130;28;20396;-77
2024/04/05 05:18:09;;;;;;;10.50;2.95;;;11.10;99.90;;;;;;4997235;28;20157;-77
2024/04/05 05:20:35;;;;;;;7.55;2.60;;;11.10;99.90;;;;;;4997145;28;20041;-77
2024/04/05 05:23:01;;;;;;;11.35;3.78;;;11.10;99.90;;;;;;5013210;28;20045;-78
2024/04/05 05:25:27;;;;;;;6.53;2.13;;;11.20;99.90;;;;;;4997024;28;20080;-77
2024/04/05 05:27:53;;;;;;;12.95;3.78;;;11.10;99.90;;;;;;5012860;28;20042;-78
2024/04/05 05:30:20;;;;;;;6.63;2.72;;;11.20;99.90;;;;;;4996940;28;20048;-77
2024/04/05 05:32:48;;;;;;;10.07;2.72;;;11.20;99.90;;;;;;4996550;28;20033;-77
2024/04/05 05:35:14;;;;;;;17.77;3.95;;;11.20;99.90;;;;;;5013035;28;20041;-78
2024/04/05 05:37:41;;;;;;;10.70;3.72;;;11.20;99.90;;;;;;5012884;28;20397;-77
2024/04/05 05:40:07;;;;;;;7.35;2.78;;;11.50;99.90;;;;;;4980438;28;20092;-78
2024/04/05 05:42:33;;;;;;;14.02;2.95;;;11.30;99.90;;;;;;4980684;28;20045;-77
2024/04/05 05:44:59;;;;;;;14.23;3.08;;;11.40;99.90;;;;;;4996384;28;20033;-77
2024/04/05 05:47:26;;;;;;;13.18;3.83;;;11.40;99.90;;;;;;5012969;28;20089;-77
2024/04/05 05:49:52;;;;;;;14.52;3.95;;;11.40;99.90;;;;;;5012614;28;20038;-78
2024/04/05 05:52:19;;;;;;;14.02;3.60;;;11.50;99.90;;;;;;5012907;28;20050;-78
2024/04/05 05:54:45;;;;;;;8.73;3.10;;;11.50;99.90;;;;;;5012002;28;20042;-77
2024/04/05 05:57:11;;;;;;;9.43;3.38;;;11.50;99.90;;;;;;5012536;28;20046;-77
2024/04/05 05:59:37;;;;;;;12.52;4.78;;;11.60;99.90;;;;;;4980199;28;20389;-77
2024/04/05 06:02:04;;;;;;;12.38;3.30;;;11.60;99.90;;;;;;4980037;28;20046;-77
2024/04/05 06:04:30;;;;;;;20.70;4.45;;;11.70;99.90;;;;;;5012449;28;20049;-77
2024/04/05 06:06:56;;;;;;;11.95;3.97;;;11.70;99.90;;;;;;5012317;28;20037;-77
2024/04/05 06:09:22;;;;;;;15.10;4.20;;;11.80;99.90;;;;;;4996202;28;20041;-77
2024/04/05 06:11:50;;;;;;;10.20;3.33;;;11.80;99.90;;;;;;4995799;28;20049;-77
2024/04/05 06:14:17;;;;;;;11.57;3.40;;;11.90;99.90;;;;;;5012369;28;20045;-77
2024/04/05 06:16:44;;;;;;;13.02;4.05;;;12.00;99.90;;;;;;5012112;28;20046;-78
2024/04/05 06:19:10;;;;;;;12.98;3.78;;;12.00;99.90;;;;;;4995647;28;20042;-78
2024/04/05 06:21:37;;;;;;;21.60;3.80;;;12.10;99.90;;;;;;5012147;28;20395;-78
2024/04/05 06:24:03;;;;;;;15.60;4.25;;;12.20;99.90;;;;;;5011829;28;20049;-78
2024/04/05 06:26:32;;;;;;;9.70;2.90;;;12.20;99.90;;;;;;5012208;28;20562;-78
2024/04/05 06:28:58;;;;;;;16.48;4.05;;;12.30;99.90;;;;;;5011996;28;20049;-78
2024/04/05 06:31:24;;;;;;;13.05;4.22;;;12.30;99.90;;;;;;4995851;28;20053;-78
2024/04/05 06:33:50;;;;;;;12.52;3.15;;;12.40;99.90;;;;;;4995495;28;20111;-78
2024/04/05 06:36:16;;;;;;;14.90;4.55;;;12.50;99.90;;;;;;5012014;28;20066;-78
2024/04/05 06:38:42;;;;;;;11.10;3.78;;;12.50;99.90;;;;;;4963523;28;20049;-78
2024/04/05 06:41:08;;;;;;;12.20;3.08;;;12.50;99.90;;;;;;5011865;28;20052;-78
2024/04/05 06:43:35;;;;;;;13.35;3.40;;;12.60;99.90;;;;;;5011831;28;20045;-78
2024/04/05 06:46:07;;;;;;;14.43;3.83;;;12.60;99.90;;;;;;5011680;28;20037;-78
2024/04/05 06:48:34;;;;;;;17.83;4.70;;;12.70;99.90;;;;;;5011881;28;20042;-78
2024/04/05 06:51:00;;;;;;;23.13;3.85;;;12.80;99.90;;;;;;4995446;28;20053;-78
2024/04/05 06:53:29;;;;;;;16.83;4.75;;;12.80;99.90;;;;;;5011837;28;20049;-78
2024/04/05 06:55:55;;;;;;;7.80;3.20;;;12.90;99.90;;;;;;4995389;28;20483;-78
2024/04/05 06:58:22;;;;;;;10.90;3.13;;;12.90;99.90;;;;;;5011765;28;20057;-78
2024/04/05 07:00:49;;;;;;;17.17;5.22;;;12.90;99.90;;;;;;4995233;28;20038;-78
2024/04/05 07:03:17;;;;;;;14.18;3.58;;;13.00;99.90;;;;;;5011353;28;20089;-78
2024/04/05 07:05:43;;;;;;;9.85;4.00;;;13.00;99.90;;;;;;4995501;28;20569;-78
2024/04/05 07:08:09;;;;;;;12.75;5.45;;;13.10;99.90;;;;;;5011504;28;20046;-78
2024/04/05 07:10:36;;;;;;;10.57;3.00;;;13.10;99.90;;;;;;5011565;28;20076;-79
2024/04/05 07:13:02;;;;;;;10.68;3.25;;;13.10;99.90;;;;;;4995291;28;20372;-78
2024/04/05 07:15:28;;;;;;;7.88;3.75;;;13.20;99.90;;;;;;5011355;28;20096;-78
2024/04/05 07:17:55;;;;;;;7.20;3.20;;;13.20;99.90;;;;;;5011269;28;20053;-78
2024/04/05 07:20:25;;;;;;;13.35;4.22;;;13.40;99.90;;;;;;5011152;28;20400;-78
2024/04/05 07:22:52;;;;;;;10.07;4.60;;;13.40;99.90;;;;;;5011542;28;20535;-78
2024/04/05 07:25:25;;;;;;;9.63;3.35;;;13.40;99.90;;;;;;5011166;28;20042;-78
2024/04/05 07:27:54;;;;;;;12.95;3.10;;;13.60;99.90;;;;;;4994878;28;20041;-78
2024/04/05 07:30:22;;;;;;;13.88;5.25;;;13.60;99.90;;;;;;4995184;28;20037;-78
2024/04/05 07:32:51;;;;;;;14.07;3.05;;;13.70;99.90;;;;;;5011193;28;20046;-78
2024/04/05 07:35:19;;;;;;;9.05;4.35;;;13.70;99.90;;;;;;4978923;28;20687;-78
2024/04/05 07:37:49;;;;;;;6.20;2.72;;;13.80;99.90;;;;;;5011076;28;20046;-78
2024/04/05 07:40:20;;;;;;;8.23;3.28;;;13.90;99.90;;;;;;5010996;28;20030;-78
2024/04/05 07:42:54;;;;;;;6.80;3.70;;;14.00;99.90;;;;;;5011149;28;20431;-78
2024/04/05 07:45:22;;;;;;;7.55;2.75;;;14.20;99.90;;;;;;5010952;28;20037;-78
2024/04/05 07:47:49;;;;;;;13.98;4.80;;;14.30;99.90;;;;;;4995134;28;20038;-78
2024/04/05 07:50:16;;;;;;;15.00;5.13;;;14.40;99.90;;;;;;5011056;28;20053;-78
2024/04/05 07:52:42;;;;;;;6.32;3.47;;;14.40;99.90;;;;;;5011276;28;20368;-78
2024/04/05 07:55:09;;;;;;;7.15;2.47;;;14.50;99.90;;;;;;4996658;28;20551;-79
2024/04/05 07:57:37;;;;;;;7.78;3.50;;;14.60;99.90;;;;;;4974700;28;20049;-79
2024/04/05 08:00:05;;;;;;;8.38;2.55;;;14.70;99.90;;;;;;4974325;28;20055;-80
2024/04/05 08:02:32;;;;;;;7.35;3.22;;;14.90;99.90;;;;;;4991436;28;20042;-79
2024/04/05 08:04:59;;;;;;;10.32;4.85;;;15.00;99.90;;;;;;4991321;28;20381;-79
2024/04/05 08:07:25;;;;;;;8.02;2.85;;;15.00;99.90;;;;;;4991187;28;20511;-79
2024/04/05 08:09:53;;;;;;;5.45;2.17;;;15.20;99.90;;;;;;4991175;28;20061;-79
2024/04/05 08:12:20;;;;;;;5.28;2.80;;;15.20;99.90;;;;;;4991007;28;20058;-79
2024/04/05 08:14:51;;;;;;;4.57;2.40;;;15.40;99.90;;;;;;4991403;28;20050;-79
2024/04/05 08:17:17;;;;;;;6.10;2.72;;;15.50;99.90;;;;;;4990985;28;20500;-79
2024/04/05 08:19:43;;;;;;;8.77;3.47;;;15.60;99.90;;;;;;4977850;28;20051;-79
2024/04/05 08:22:09;;;;;;;8.48;3.92;;;15.60;99.90;;;;;;4978545;28;20046;-79
2024/04/05 08:24:35;;;;;;;7.43;3.28;;;15.60;99.90;;;;;;4978728;28;20046;-79
2024/04/05 08:27:02;;;;;;;6.15;3.47;;;15.60;99.90;;;;;;4978651;28;20107;-79
2024/04/05 08:29:29;;;;;;;7.97;3.97;;;15.60;99.90;;;;;;4978502;28;20050;-79
2024/04/05 08:31:55;;;;;;;8.38;4.38;;;15.60;99.90;;;;;;4962460;28;20050;-79
2024/04/05 08:34:21;;;;;;;8.27;4.13;;;15.60;99.90;;;;;;4978244;28;20054;-79
2024/04/05 08:36:51;;;;;;;8.02;3.85;;;15.50;99.90;;;;;;4994707;28;20057;-79
2024/04/05 08:39:18;;;;;;;5.60;2.55;;;15.50;99.90;;;;;;4978803;28;20107;-79
2024/04/05 08:41:47;;;;;;;5.22;2.78;;;15.60;99.90;;;;;;4994148;28;20050;-78
2024/04/05 08:44:15;;;;;;;11.73;3.70;;;15.70;99.90;;;;;;4994694;28;20065;-77
2024/04/05 08:46:42;;;;;;;14.57;3.13;;;15.80;99.90;;;;;;4994569;28;20053;-76
2024/04/05 08:49:10;;;;;;;6.20;2.80;;;15.80;99.90;;;;;;4994449;28;20100;-77
2024/04/05 08:51:41;;;;;;;13.48;5.07;;;15.70;99.90;;;;;;4994503;28;20042;-76
2024/04/05 08:54:07;;;;;;;11.23;4.72;;;15.60;99.90;;;;;;4994579;28;20403;-77
2024/04/05 08:56:34;;;;;;;6.53;2.92;;;15.50;99.90;;;;;;4994018;28;20114;-77
2024/04/05 08:59:02;;;;;;;7.47;3.47;;;15.50;99.90;;;;;;4978251;28;20081;-78
2024/04/05 09:01:28;;;;;;;8.05;3.05;;;15.50;99.90;;;;;;4994217;28;20045;-78
2024/04/05 09:03:54;;;;;;;6.13;2.95;;;15.50;99.90;;;;;;4978120;28;20053;-78
2024/04/05 09:06:21;;;;;;;4.55;3.20;;;15.60;99.90;;;;;;4977857;28;20503;-78
2024/04/05 09:08:52;;;;;;;3.10;2.70;;;15.60;99.90;;;;;;4994005;28;20050;-78
2024/04/05 09:11:20;;;;;;;10.02;3.10;;;15.60;99.90;;;;;;4993906;28;20100;-78
2024/04/05 09:13:56;;;;;;;11.77;3.95;;;15.70;99.90;;;;;;4993987;28;20061;-78
2024/04/05 09:16:24;;;;;;;3.88;2.40;;;15.60;99.90;;;;;;4977541;28;20049;-78
2024/04/05 09:18:50;;;;;;;9.38;3.35;;;15.50;99.90;;;;;;4993732;28;20052;-78
2024/04/05 09:21:17;;;;;;;7.30;3.33;;;15.40;99.90;;;;;;4993523;28;20039;-78
2024/04/05 09:23:45;;;;;;;5.97;2.08;;;15.30;99.90;;;;;;4993730;28;20046;-78
2024/04/05 09:26:18;;;;;;;6.85;2.38;;;15.10;99.90;;;;;;4993628;28;20043;-78
2024/04/05 09:29:07;;;;;;;8.07;3.58;;;14.80;99.90;;;;;;4993609;28;20049;-78
2024/04/05 09:31:34;;;;;;;8.48;3.10;;;14.50;99.90;;;;;;4976604;28;20089;-78
2024/04/05 09:34:14;;;;;;;4.90;2.92;;;14.30;99.90;;;;;;4977487;28;20046;-79
2024/04/05 09:36:41;;;;;;;8.48;2.65;;;14.10;99.90;;;;;;4993297;28;20042;-79
2024/04/05 09:39:16;;;;;;;11.65;5.10;;;14.00;99.90;;;;;;4993435;28;20049;-78
2024/04/05 09:41:44;;;;;;;5.72;3.15;;;13.80;99.90;;;;;;4977737;28;20050;-78
2024/04/05 09:44:11;;;;;;;6.25;3.42;;;13.70;99.90;;;;;;4993456;28;20069;-79
2024/04/05 09:46:38;;;;;;;8.15;4.38;;;13.70;99.90;;;;;;4993479;28;20045;-79
2024/04/05 09:49:05;;;;;;;7.40;3.38;;;13.60;99.90;;;;;;4961026;28;20057;-79
2024/04/05 09:51:44;;;;;;;6.55;2.58;;;13.60;99.90;;;;;;4993101;28;20046;-78
2024/04/05 09:54:11;;;;;;;6.20;2.72;;;13.60;99.90;;;;;;4977080;28;20370;-79
2024/04/05 09:56:40;;;;;;;8.48;4.70;;;13.50;99.90;;;;;;4992844;28;20046;-79
2024/04/05 09:59:21;;;;;;;7.75;2.80;;;13.50;99.90;;;;;;4992936;28;20043;-79
2024/04/05 10:01:47;;;;;;;5.75;2.05;;;13.50;99.90;;;;;;4993012;28;20039;-78
2024/04/05 10:04:13;;;;;;;10.38;3.75;;;13.60;99.90;;;;;;4992945;28;20546;-78
2024/04/05 10:06:42;;;;;;;9.52;3.47;;;13.60;99.90;;;;;;4976777;28;20046;-78
2024/04/05 10:09:19;;;;;;;9.75;2.90;;;13.60;99.90;;;;;;4992867;28;20046;-79
2024/04/05 10:11:52;;;;;;;8.60;3.03;;;13.60;99.90;;;;;;4992729;28;20050;-78
2024/04/05 10:14:26;;;;;;;2.97;2.30;;;13.50;99.90;;;;;;4992805;28;20057;-79
2024/04/05 10:17:04;;;;;;;6.72;3.58;;;13.50;99.90;;;;;;4992709;28;20038;-79
2024/04/05 10:19:30;;;;;;;8.05;3.10;;;13.50;99.90;;;;;;4992476;28;20103;-79
2024/04/05 10:22:09;;;;;;;5.70;3.65;;;13.50;99.90;;;;;;4992687;28;20038;-79
2024/04/05 10:24:39;;;;;;;4.63;3.35;;;13.50;99.90;;;;;;4992433;28;20042;-79
2024/04/05 10:27:05;;;;;;;6.93;3.58;;;13.60;99.90;;;;;;4992573;28;20038;-79
2024/04/05 10:29:31;;;;;;;6.32;3.03;;;13.60;99.90;;;;;;4992117;28;20412;-79
2024/04/05 10:32:09;;;;;;;5.55;3.40;;;13.60;99.90;;;;;;4976270;28;20061;-79
2024/04/05 10:34:38;;;;;;;11.02;4.88;;;13.50;99.90;;;;;;4992383;28;20042;-79
2024/04/05 10:37:05;;;;;;;6.80;3.30;;;13.60;99.90;;;;;;4992151;28;20052;-78
2024/04/05 10:39:32;;;;;;;8.00;3.53;;;13.60;99.90;;;;;;4992051;28;20081;-80
2024/04/05 10:41:58;;;;;;;9.52;4.70;;;13.50;99.90;;;;;;4991968;28;20046;-79
2024/04/05 10:44:24;;;;;;;7.13;3.08;;;13.50;99.90;;;;;;4992165;28;20046;-79
2024/04/05 10:46:52;;;;;;;8.35;3.28;;;13.60;99.90;;;;;;4992006;28;20062;-79
2024/04/05 10:49:19;;;;;;;5.55;3.55;;;13.60;99.90;;;;;;4992054;28;20046;-80
2024/04/05 10:51:47;;;;;;;8.63;3.92;;;13.60;99.90;;;;;;4976080;28;20053;-79
2024/04/05 10:54:15;;;;;;;7.78;4.18;;;13.60;99.90;;;;;;4975841;28;20054;-79
2024/04/05 10:56:42;;;;;;;7.18;3.25;;;13.60;99.90;;;;;;4991927;28;20038;-78
2024/04/05 10:59:13;;;;;;;5.25;2.85;;;13.60;99.90;;;;;;4991894;28;20050;-78
2024/04/05 11:01:40;;;;;;;9.52;4.05;;;13.70;99.90;;;;;;4991978;28;20049;-78
2024/04/05 11:04:10;;;;;;;4.30;2.75;;;13.70;99.90;;;;;;4992186;28;20508;-79
2024/04/05 11:06:37;;;;;;;3.65;2.42;;;13.80;99.90;;;;;;4991986;28;20050;-79
2024/04/05 11:09:06;;;;;;;4.63;2.83;;;13.80;99.90;;;;;;4991948;28;20097;-80
2024/04/05 11:11:35;;;;;;;9.05;3.17;;;13.90;99.90;;;;;;4991744;28;20396;-79
2024/04/05 11:14:06;;;;;;;4.13;3.20;;;14.00;99.90;;;;;;4991861;28;20053;-79
2024/04/05 11:16:34;;;;;;;8.25;3.15;;;14.00;99.90;;;;;;4975580;28;20381;-79
2024/04/05 11:19:00;;;;;;;10.75;2.72;;;14.20;99.90;;;;;;4991797;28;20058;-79
2024/04/05 11:21:26;;;;;;;7.28;3.33;;;14.30;99.90;;;;;;4991705;28;20047;-79
2024/04/05 11:23:55;;;;;;;5.15;3.15;;;14.40;99.90;;;;;;4991502;28;20044;-79
2024/04/05 11:26:32;;;;;;;8.85;3.63;;;14.50;99.90;;;;;;4991711;28;20061;-79
2024/04/05 11:29:01;;;;;;;8.52;2.95;;;14.60;99.90;;;;;;4991760;28;20524;-79
2024/04/05 11:31:29;;;;;;;7.07;3.17;;;14.60;99.90;;;;;;4991677;28;20137;-79
2024/04/05 11:33:56;;;;;;;10.50;2.50;;;14.70;99.90;;;;;;4975240;28;20488;-79
2024/04/05 11:36:23;;;;;;;6.28;2.33;;;14.70;99.90;;;;;;4975312;28;20042;-80
2024/04/05 11:38:50;;;;;;;3.80;2.40;;;14.70;99.90;;;;;;4991298;28;20041;-79
2024/04/05 11:41:16;;;;;;;5.50;3.45;;;14.70;99.90;;;;;;4991417;28;20113;-79
2024/04/05 11:43:43;;;;;;;5.53;2.38;;;14.60;99.90;;;;;;4991439;28;20042;-79
2024/04/05 11:46:09;;;;;;;5.78;2.75;;;14.60;99.90;;;;;;4975754;28;20333;-78
2024/04/05 11:48:35;;;;;;;7.60;2.72;;;14.70;99.90;;;;;;4991361;28;20097;-78
2024/04/05 11:51:01;;;;;;;5.15;1.63;;;14.70;99.90;;;;;;4991484;28;20047;-78
2024/04/05 11:53:27;;;;;;;5.75;2.95;;;14.60;99.90;;;;;;4992650;28;20477;-78
2024/04/05 11:55:54;;;;;;;6.40;3.67;;;14.60;99.90;;;;;;4978826;28;20058;-78
2024/04/05 11:58:20;;;;;;;7.18;3.03;;;14.60;99.90;;;;;;4995282;28;20046;-78
2024/04/05 12:00:50;;;;;;;5.53;3.28;;;14.50;99.90;;;;;;4978825;28;20514;-78
2024/04/05 12:03:16;;;;;;;6.57;3.90;;;14.50;99.90;;;;;;4995145;28;20043;-78
2024/04/05 12:05:44;;;;;;;3.40;2.40;;;14.50;99.90;;;;;;4995195;28;20053;-78
2024/04/05 12:08:10;;;;;;;4.13;2.40;;;14.50;99.90;;;;;;4979349;28;20053;-78
2024/04/05 12:10:37;;;;;;;3.97;2.45;;;14.60;99.90;;;;;;4994994;28;20081;-78
2024/04/05 12:13:03;;;;;;;5.18;2.63;;;14.60;99.90;;;;;;4995303;28;20047;-78
2024/04/05 12:15:30;;;;;;;4.93;3.05;;;14.60;99.90;;;;;;4995027;28;20047;-78
2024/04/05 12:17:58;;;;;;;4.18;2.90;;;14.60;99.90;;;;;;4994644;28;20034;-78
2024/04/05 12:20:24;;;;;;;6.90;3.17;;;14.60;99.90;;;;;;4995188;28;20057;-78
2024/04/05 12:22:50;;;;;;;4.30;2.72;;;14.60;99.90;;;;;;4978442;28;20038;-78
2024/04/05 12:25:16;;;;;;;3.95;3.38;;;14.60;99.90;;;;;;4995152;28;20415;-78
2024/04/05 12:27:45;;;;;;;5.63;3.50;;;14.50;99.90;;;;;;4994852;28;20049;-78
2024/04/05 12:30:12;;;;;;;5.63;2.42;;;14.40;99.90;;;;;;4994749;28;20561;-78
2024/04/05 12:32:38;;;;;;;8.63;4.00;;;14.30;99.90;;;;;;4994704;28;20053;-79
2024/04/05 12:35:04;;;;;;;6.78;3.33;;;14.10;99.90;;;;;;4994271;28;20046;-79
2024/04/05 12:37:31;;;;;;;8.32;4.35;;;14.00;99.90;;;;;;4994264;28;20046;-79
2024/04/05 12:39:57;;;;;;;4.78;2.85;;;14.00;99.90;;;;;;4994330;28;20570;-79